MiSS Stacie — WDF5915 — position and weather

sailwx.info

Track history (hours):
 
Tides and Currents Weather Stations Pressure Air Temp Water Temp Dewpoint Dewpoint Depression Visibility Wind Speed Wind Dir Waves Ship Positions

MiSS Stacie

Owner: Crosby Marine Transportation LLC, Golden Meadow, LA. More information available from US FCC via Universal Licensing System and Coast Guard Vessel Documentation Center.

Last reported at 2016-Nov-15 13:33 UTC. Time now 2016-Dec-03 00:23 UTC.
Position N 29°33' W 090°42'.
Warning: this ship's position is 17 days out of date.

Length 20 m; draft 2 m.

Type: Tug. MMSI: 367468640.

Date/timePositionNaut miles runAvg speedWind from/ knotsBaromVisibWave heightAir tempDewpointWater temp
2016-Nov-15 13:33N 29°33' W 090°42'0 0.0
2016-Nov-15 12:33N 29°33' W 090°42'0 0.0
2016-Nov-15 11:34N 29°33' W 090°42'0 0.0
2016-Nov-15 10:33N 29°33' W 090°42'0 0.0
2016-Nov-15 07:33N 29°33' W 090°42'0 0.0
2016-Nov-15 06:34N 29°33' W 090°42'0 0.0
2016-Nov-15 05:53N 29°33' W 090°42'0 0.0
2016-Nov-15 03:33N 29°33' W 090°42'0 0.0
2016-Nov-15 02:33N 29°33' W 090°42'0 0.0
2016-Nov-15 00:34N 29°33' W 090°42'0 0.0
2016-Nov-14 23:43N 29°33' W 090°42'0 0.0
2016-Nov-14 19:33N 29°33' W 090°42'0 0.0
2016-Nov-14 17:34N 29°33' W 090°42'0 0.0
2016-Nov-14 16:33N 29°33' W 090°42'0 0.0
2016-Nov-14 15:33N 29°33' W 090°42'0 0.0
2016-Nov-14 11:34N 29°33' W 090°42'0 0.0
2016-Nov-14 08:33N 29°33' W 090°42'0 0.0
2016-Nov-14 05:33N 29°33' W 090°42'0 0.0
2016-Nov-14 00:34N 29°33' W 090°42'0 0.0
2016-Nov-13 23:33N 29°33' W 090°42'0 0.0
2016-Nov-13 22:34N 29°33' W 090°42'0 0.0
2016-Nov-13 19:33N 29°33' W 090°42'0 0.0
2016-Nov-13 18:34N 29°33' W 090°42'0 0.0
2016-Nov-13 17:33N 29°33' W 090°42'1 0.5
2016-Nov-13 15:33N 29°34' W 090°43'0 0.2
2016-Nov-13 13:33N 29°33' W 090°42'0 0.1
2016-Nov-13 10:33N 29°33' W 090°42'1 0.3
2016-Nov-13 08:33N 29°33' W 090°42'0 0.0
2016-Nov-13 05:34N 29°33' W 090°42'0 0.0
2016-Nov-13 03:33N 29°33' W 090°42'0 0.0
2016-Nov-12 23:34N 29°33' W 090°42'0 0.0
2016-Nov-12 21:33N 29°33' W 090°42'0 0.0
2016-Nov-12 19:33N 29°33' W 090°42'0 0.0
2016-Nov-12 17:34N 29°33' W 090°42'0 0.0
2016-Nov-12 16:33N 29°33' W 090°42'0 0.0
2016-Nov-12 15:34N 29°33' W 090°42'0 0.0
2016-Nov-12 14:33N 29°33' W 090°42'0 0.0
2016-Nov-12 13:33N 29°33' W 090°42'0 0.0
2016-Nov-12 12:33N 29°33' W 090°42'0 0.0
2016-Nov-12 11:33N 29°33' W 090°42'0 0.0
2016-Nov-12 09:33N 29°33' W 090°42'0 0.0
2016-Nov-12 06:33N 29°33' W 090°42'0 0.0
2016-Nov-12 03:33N 29°33' W 090°42'0 0.0
2016-Nov-12 02:34N 29°33' W 090°42'0 0.0
2016-Nov-12 00:33N 29°33' W 090°42'0 0.0
2016-Nov-11 23:34N 29°33' W 090°42'0 0.0
2016-Nov-11 19:34N 29°33' W 090°42'0 0.0
2016-Nov-11 15:34N 29°33' W 090°42'0 0.0
2016-Nov-11 14:34N 29°33' W 090°42'0 0.0
2016-Nov-11 10:33N 29°33' W 090°42'0 0.0
2016-Nov-11 09:33N 29°33' W 090°42'0 0.0
2016-Nov-11 06:34N 29°33' W 090°42'0 0.0
2016-Nov-11 05:34N 29°33' W 090°42'0 0.0
2016-Nov-11 04:33N 29°33' W 090°42'0 0.0
2016-Nov-11 03:33N 29°33' W 090°42'0 0.0
2016-Nov-11 02:33N 29°33' W 090°42'0 0.0
2016-Nov-11 01:33N 29°33' W 090°42'0 0.0
2016-Nov-11 00:34N 29°33' W 090°42'0 0.0
2016-Nov-10 23:33N 29°33' W 090°42'0 0.0
2016-Nov-10 22:34N 29°33' W 090°42'3 1.4
2016-Nov-10 20:33N 29°36' W 090°43'2 1.1
2016-Nov-10 18:33N 29°36' W 090°40'1 0.5
2016-Nov-10 16:33N 29°36' W 090°41'3 3.0
2016-Nov-10 15:34N 29°34' W 090°43'1 0.3
2016-Nov-10 11:33N 29°33' W 090°42'0 0.0
2016-Nov-10 10:33N 29°33' W 090°42'0 0.0
2016-Nov-10 09:34N 29°33' W 090°42'0 0.0
2016-Nov-10 08:34N 29°33' W 090°42'0 0.0
2016-Nov-10 07:33N 29°33' W 090°42'0 0.0
2016-Nov-10 06:33N 29°33' W 090°42'0 0.0
2016-Nov-10 05:33N 29°33' W 090°42'0 0.0
2016-Nov-10 04:34N 29°33' W 090°42'0 0.0
2016-Nov-10 00:33N 29°33' W 090°42'0 0.0
2016-Nov-09 22:33N 29°33' W 090°42'0 0.0
2016-Nov-09 20:37N 29°33' W 090°42'0 0.0
2016-Nov-09 19:53N 29°33' W 090°42'0 0.0
2016-Nov-09 18:33N 29°33' W 090°42'0 0.0
2016-Nov-09 17:34N 29°33' W 090°42'0 0.0
2016-Nov-09 15:33N 29°33' W 090°42'0 0.0
2016-Nov-09 13:34N 29°33' W 090°42'0 0.0
2016-Nov-09 08:34N 29°33' W 090°42'0 0.0
2016-Nov-09 07:33N 29°33' W 090°42'0 0.0
2016-Nov-09 05:34N 29°33' W 090°42'0 0.0
2016-Nov-09 04:33N 29°33' W 090°42'0 0.0
2016-Nov-09 02:33N 29°33' W 090°42'0 0.0
2016-Nov-08 23:34N 29°33' W 090°42'0 0.0
2016-Nov-08 22:33N 29°33' W 090°42'0 0.0
2016-Nov-08 21:33N 29°33' W 090°42'0 0.0
2016-Nov-08 20:33N 29°33' W 090°42'0 0.0
2016-Nov-08 19:34N 29°33' W 090°42'0 0.0
2016-Nov-08 18:33N 29°33' W 090°42'0 0.0
2016-Nov-08 17:33N 29°33' W 090°42'0 0.0
2016-Nov-08 15:34N 29°33' W 090°42'0 0.0
2016-Nov-08 09:33N 29°33' W 090°42'2 0.5
2016-Nov-08 06:33N 29°34' W 090°43'0 0.0
2016-Nov-08 04:33N 29°34' W 090°43'2 0.4
2016-Nov-08 00:33N 29°33' W 090°42'0 0.0
2016-Nov-07 23:33N 29°33' W 090°42'4 1.1
2016-Nov-07 19:33N 29°35' W 090°38'4 2.2
2016-Nov-07 17:32N 29°33' W 090°42'0 0.1
2016-Nov-07 16:32N 29°33' W 090°42'0 0.0
2016-Nov-07 15:33N 29°33' W 090°42'0 0.0
2016-Nov-07 14:33N 29°33' W 090°42'0 0.0
2016-Nov-07 13:32N 29°33' W 090°42'0 0.0
2016-Nov-07 09:32N 29°33' W 090°42'0 0.0
2016-Nov-07 08:32N 29°33' W 090°42'0 0.0
2016-Nov-07 07:32N 29°33' W 090°42'0 0.0
2016-Nov-07 06:32N 29°33' W 090°42'0 0.0
2016-Nov-07 05:32N 29°33' W 090°42'0 0.0
2016-Nov-07 02:32N 29°33' W 090°42'0 0.0
2016-Nov-07 01:32N 29°33' W 090°42'0 0.0
2016-Nov-06 22:32N 29°33' W 090°42'0 0.0
2016-Nov-06 20:29N 29°33' W 090°42'0 0.0
2016-Nov-06 19:32N 29°33' W 090°42'0 0.0
2016-Nov-06 17:32N 29°33' W 090°42'0 0.0
2016-Nov-06 15:32N 29°33' W 090°42'0 0.0
2016-Nov-06 13:32N 29°33' W 090°42'0 0.0
2016-Nov-06 12:32N 29°33' W 090°42'0 0.0
2016-Nov-06 11:32N 29°33' W 090°42'0 0.0
2016-Nov-06 10:32N 29°33' W 090°42'0 0.0
2016-Nov-06 08:32N 29°33' W 090°42'0 0.0
2016-Nov-06 07:32N 29°33' W 090°42'0 0.0
2016-Nov-05 23:32N 29°33' W 090°42'0 0.0
2016-Nov-05 21:32N 29°33' W 090°42'0 0.0
2016-Nov-05 20:41N 29°33' W 090°42'0 0.2
2016-Nov-05 20:32N 29°33' W 090°42'0 0.0
2016-Nov-05 16:32N 29°33' W 090°42'  
Track history (hours):
 
Tides and Currents Weather Stations Pressure Air Temp Water Temp Dewpoint Dewpoint Depression Visibility Wind Speed Wind Dir Waves Ship Positions

MiSS Stacie

Owner: Crosby Marine Transportation LLC, Golden Meadow, LA. More information available from US FCC via Universal Licensing System and Coast Guard Vessel Documentation Center.

Last reported at 2016-Nov-15 13:33 UTC. Time now 2016-Dec-03 00:23 UTC.
Position N 29°33' W 090°42'.
Warning: this ship's position is 17 days out of date.

Length 20 m; draft 2 m.

Type: Tug. MMSI: 367468640.

Date/timePositionNaut miles runAvg speedWind from/ knotsBaromVisibWave heightAir tempDewpointWater temp
2016-Nov-15 13:33N 29°33' W 090°42'0 0.0
2016-Nov-15 12:33N 29°33' W 090°42'0 0.0
2016-Nov-15 11:34N 29°33' W 090°42'0 0.0
2016-Nov-15 10:33N 29°33' W 090°42'0 0.0
2016-Nov-15 07:33N 29°33' W 090°42'0 0.0
2016-Nov-15 06:34N 29°33' W 090°42'0 0.0
2016-Nov-15 05:53N 29°33' W 090°42'0 0.0
2016-Nov-15 03:33N 29°33' W 090°42'0 0.0
2016-Nov-15 02:33N 29°33' W 090°42'0 0.0
2016-Nov-15 00:34N 29°33' W 090°42'0 0.0
2016-Nov-14 23:43N 29°33' W 090°42'0 0.0
2016-Nov-14 19:33N 29°33' W 090°42'0 0.0
2016-Nov-14 17:34N 29°33' W 090°42'0 0.0
2016-Nov-14 16:33N 29°33' W 090°42'0 0.0
2016-Nov-14 15:33N 29°33' W 090°42'0 0.0
2016-Nov-14 11:34N 29°33' W 090°42'0 0.0
2016-Nov-14 08:33N 29°33' W 090°42'0 0.0
2016-Nov-14 05:33N 29°33' W 090°42'0 0.0
2016-Nov-14 00:34N 29°33' W 090°42'0 0.0
2016-Nov-13 23:33N 29°33' W 090°42'0 0.0
2016-Nov-13 22:34N 29°33' W 090°42'0 0.0
2016-Nov-13 19:33N 29°33' W 090°42'0 0.0
2016-Nov-13 18:34N 29°33' W 090°42'0 0.0
2016-Nov-13 17:33N 29°33' W 090°42'1 0.5
2016-Nov-13 15:33N 29°34' W 090°43'0 0.2
2016-Nov-13 13:33N 29°33' W 090°42'0 0.1
2016-Nov-13 10:33N 29°33' W 090°42'1 0.3
2016-Nov-13 08:33N 29°33' W 090°42'0 0.0
2016-Nov-13 05:34N 29°33' W 090°42'0 0.0
2016-Nov-13 03:33N 29°33' W 090°42'0 0.0
2016-Nov-12 23:34N 29°33' W 090°42'0 0.0
2016-Nov-12 21:33N 29°33' W 090°42'0 0.0
2016-Nov-12 19:33N 29°33' W 090°42'0 0.0
2016-Nov-12 17:34N 29°33' W 090°42'0 0.0
2016-Nov-12 16:33N 29°33' W 090°42'0 0.0
2016-Nov-12 15:34N 29°33' W 090°42'0 0.0
2016-Nov-12 14:33N 29°33' W 090°42'0 0.0
2016-Nov-12 13:33N 29°33' W 090°42'0 0.0
2016-Nov-12 12:33N 29°33' W 090°42'0 0.0
2016-Nov-12 11:33N 29°33' W 090°42'0 0.0
2016-Nov-12 09:33N 29°33' W 090°42'0 0.0
2016-Nov-12 06:33N 29°33' W 090°42'0 0.0
2016-Nov-12 03:33N 29°33' W 090°42'0 0.0
2016-Nov-12 02:34N 29°33' W 090°42'0 0.0
2016-Nov-12 00:33N 29°33' W 090°42'0 0.0
2016-Nov-11 23:34N 29°33' W 090°42'0 0.0
2016-Nov-11 19:34N 29°33' W 090°42'0 0.0
2016-Nov-11 15:34N 29°33' W 090°42'0 0.0
2016-Nov-11 14:34N 29°33' W 090°42'0 0.0
2016-Nov-11 10:33N 29°33' W 090°42'0 0.0
2016-Nov-11 09:33N 29°33' W 090°42'0 0.0
2016-Nov-11 06:34N 29°33' W 090°42'0 0.0
2016-Nov-11 05:34N 29°33' W 090°42'0 0.0
2016-Nov-11 04:33N 29°33' W 090°42'0 0.0
2016-Nov-11 03:33N 29°33' W 090°42'0 0.0
2016-Nov-11 02:33N 29°33' W 090°42'0 0.0
2016-Nov-11 01:33N 29°33' W 090°42'0 0.0
2016-Nov-11 00:34N 29°33' W 090°42'0 0.0
2016-Nov-10 23:33N 29°33' W 090°42'0 0.0
2016-Nov-10 22:34N 29°33' W 090°42'3 1.4
2016-Nov-10 20:33N 29°36' W 090°43'2 1.1
2016-Nov-10 18:33N 29°36' W 090°40'1 0.5
2016-Nov-10 16:33N 29°36' W 090°41'3 3.0
2016-Nov-10 15:34N 29°34' W 090°43'1 0.3
2016-Nov-10 11:33N 29°33' W 090°42'0 0.0
2016-Nov-10 10:33N 29°33' W 090°42'0 0.0
2016-Nov-10 09:34N 29°33' W 090°42'0 0.0
2016-Nov-10 08:34N 29°33' W 090°42'0 0.0
2016-Nov-10 07:33N 29°33' W 090°42'0 0.0
2016-Nov-10 06:33N 29°33' W 090°42'0 0.0
2016-Nov-10 05:33N 29°33' W 090°42'0 0.0
2016-Nov-10 04:34N 29°33' W 090°42'0 0.0
2016-Nov-10 00:33N 29°33' W 090°42'0 0.0
2016-Nov-09 22:33N 29°33' W 090°42'0 0.0
2016-Nov-09 20:37N 29°33' W 090°42'0 0.0
2016-Nov-09 19:53N 29°33' W 090°42'0 0.0
2016-Nov-09 18:33N 29°33' W 090°42'0 0.0
2016-Nov-09 17:34N 29°33' W 090°42'0 0.0
2016-Nov-09 15:33N 29°33' W 090°42'0 0.0
2016-Nov-09 13:34N 29°33' W 090°42'0 0.0
2016-Nov-09 08:34N 29°33' W 090°42'0 0.0
2016-Nov-09 07:33N 29°33' W 090°42'0 0.0
2016-Nov-09 05:34N 29°33' W 090°42'0 0.0
2016-Nov-09 04:33N 29°33' W 090°42'0 0.0
2016-Nov-09 02:33N 29°33' W 090°42'0 0.0
2016-Nov-08 23:34N 29°33' W 090°42'0 0.0
2016-Nov-08 22:33N 29°33' W 090°42'0 0.0
2016-Nov-08 21:33N 29°33' W 090°42'0 0.0
2016-Nov-08 20:33N 29°33' W 090°42'0 0.0
2016-Nov-08 19:34N 29°33' W 090°42'0 0.0
2016-Nov-08 18:33N 29°33' W 090°42'0 0.0
2016-Nov-08 17:33N 29°33' W 090°42'0 0.0
2016-Nov-08 15:34N 29°33' W 090°42'0 0.0
2016-Nov-08 09:33N 29°33' W 090°42'2 0.5
2016-Nov-08 06:33N 29°34' W 090°43'0 0.0
2016-Nov-08 04:33N 29°34' W 090°43'2 0.4
2016-Nov-08 00:33N 29°33' W 090°42'0 0.0
2016-Nov-07 23:33N 29°33' W 090°42'4 1.1
2016-Nov-07 19:33N 29°35' W 090°38'4 2.2
2016-Nov-07 17:32N 29°33' W 090°42'0 0.1
2016-Nov-07 16:32N 29°33' W 090°42'0 0.0
2016-Nov-07 15:33N 29°33' W 090°42'0 0.0
2016-Nov-07 14:33N 29°33' W 090°42'0 0.0
2016-Nov-07 13:32N 29°33' W 090°42'0 0.0
2016-Nov-07 09:32N 29°33' W 090°42'0 0.0
2016-Nov-07 08:32N 29°33' W 090°42'0 0.0
2016-Nov-07 07:32N 29°33' W 090°42'0 0.0
2016-Nov-07 06:32N 29°33' W 090°42'0 0.0
2016-Nov-07 05:32N 29°33' W 090°42'0 0.0
2016-Nov-07 02:32N 29°33' W 090°42'0 0.0
2016-Nov-07 01:32N 29°33' W 090°42'0 0.0
2016-Nov-06 22:32N 29°33' W 090°42'0 0.0
2016-Nov-06 20:29N 29°33' W 090°42'0 0.0
2016-Nov-06 19:32N 29°33' W 090°42'0 0.0
2016-Nov-06 17:32N 29°33' W 090°42'0 0.0
2016-Nov-06 15:32N 29°33' W 090°42'0 0.0
2016-Nov-06 13:32N 29°33' W 090°42'0 0.0
2016-Nov-06 12:32N 29°33' W 090°42'0 0.0
2016-Nov-06 11:32N 29°33' W 090°42'0 0.0
2016-Nov-06 10:32N 29°33' W 090°42'0 0.0
2016-Nov-06 08:32N 29°33' W 090°42'0 0.0
2016-Nov-06 07:32N 29°33' W 090°42'0 0.0
2016-Nov-05 23:32N 29°33' W 090°42'0 0.0
2016-Nov-05 21:32N 29°33' W 090°42'0 0.0
2016-Nov-05 20:41N 29°33' W 090°42'0 0.2
2016-Nov-05 20:32N 29°33' W 090°42'0 0.0
2016-Nov-05 16:32N 29°33' W 090°42'  

Dump ship's entire track history